Time;durP1;ratioP1;P1;durP2;ratioP2;P2;SDS_P1;SDS_P2;PMS_P1;PMS_P2;Temp;Humidity;BMP_temperature;BMP_pressure;BME280_temperature;BME280_humidity;BME280_pressure;Samples;Min_cycle;Max_cycle;Signal;HPM_P1;HPM_P2
2022/10/19 00:01:11;;;;;;;17.43;7.03;;;7.50;99.90;;;;;;5038649;28;20238;-77
2022/10/19 00:03:40;;;;;;;13.80;6.37;;;7.50;99.90;;;;;;5036462;28;20622;-77
2022/10/19 00:06:28;;;;;;;8.10;5.47;;;7.50;99.90;;;;;;5040019;28;20202;-77
2022/10/19 00:09:11;;;;;;;10.20;5.63;;;7.40;99.90;;;;;;5034792;28;20228;-77
2022/10/19 00:11:43;;;;;;;15.60;5.50;;;7.40;99.90;;;;;;5022752;28;20203;-76
2022/10/19 00:14:16;;;;;;;14.83;5.90;;;7.40;99.90;;;;;;5039215;28;20705;-79
2022/10/19 00:16:45;;;;;;;12.33;5.40;;;7.40;99.90;;;;;;5038039;28;20291;-76
2022/10/19 00:19:16;;;;;;;9.43;5.10;;;7.30;99.90;;;;;;5046691;28;20628;-76
2022/10/19 00:21:43;;;;;;;7.83;4.87;;;7.30;99.90;;;;;;5038088;28;20242;-78
2022/10/19 00:24:10;;;;;;;11.17;5.30;;;7.30;99.90;;;;;;5021367;28;20200;-77
2022/10/19 00:26:37;;;;;;;8.20;4.70;;;7.20;99.90;;;;;;5039112;28;20519;-78
2022/10/19 00:29:04;;;;;;;8.93;5.27;;;7.30;99.90;;;;;;5040538;28;20664;-78
2022/10/19 00:31:32;;;;;;;8.07;5.17;;;7.20;99.90;;;;;;5036908;28;20221;-77
2022/10/19 00:33:59;;;;;;;11.23;6.67;;;7.30;99.90;;;;;;5037393;28;20240;-78
2022/10/19 00:36:38;;;;;;;7.73;5.33;;;7.20;99.90;;;;;;5004227;28;20210;-76
2022/10/19 00:39:07;;;;;;;11.10;6.30;;;7.10;99.90;;;;;;5016121;28;20300;-78
2022/10/19 00:41:35;;;;;;;22.20;5.87;;;7.10;99.90;;;;;;5017083;28;20667;-77
2022/10/19 00:44:11;;;;;;;11.40;5.93;;;7.10;99.90;;;;;;5008801;28;20203;-77
2022/10/19 00:46:41;;;;;;;8.80;5.47;;;7.10;99.90;;;;;;5000826;28;20295;-78
2022/10/19 00:49:12;;;;;;;12.10;6.30;;;7.10;99.90;;;;;;5015505;28;20230;-76
2022/10/19 00:51:44;;;;;;;9.87;5.60;;;7.10;99.90;;;;;;5017925;28;20220;-77
2022/10/19 00:54:11;;;;;;;14.60;6.07;;;7.00;99.90;;;;;;5008211;28;20282;-77
2022/10/19 00:56:41;;;;;;;12.70;5.50;;;7.00;99.90;;;;;;5003606;28;20266;-76
2022/10/19 00:59:09;;;;;;;12.70;6.87;;;7.00;99.90;;;;;;5026318;28;20312;-78
2022/10/19 01:01:36;;;;;;;14.73;6.53;;;7.00;99.90;;;;;;5017734;28;20299;-76
2022/10/19 01:04:04;;;;;;;13.10;6.23;;;6.90;99.90;;;;;;5020051;28;20257;-77
2022/10/19 01:06:32;;;;;;;9.90;6.60;;;6.90;99.90;;;;;;5022757;28;20649;-77
2022/10/19 01:08:59;;;;;;;14.00;6.53;;;6.90;99.90;;;;;;4998651;28;20668;-76
2022/10/19 01:12:00;;;;;;;13.03;6.03;;;6.90;99.90;;;;;;5020772;28;20300;-77
2022/10/19 01:14:42;;;;;;;13.70;6.70;;;6.90;99.90;;;;;;5009652;28;20226;-78
2022/10/19 01:17:27;;;;;;;13.37;6.20;;;6.80;99.90;;;;;;5018887;28;20221;-76
2022/10/19 01:20:05;;;;;;;10.20;5.27;;;6.80;99.90;;;;;;5023662;28;20834;-77
2022/10/19 01:22:50;;;;;;;7.40;5.10;;;6.80;99.90;;;;;;5020774;28;20303;-77
2022/10/19 01:25:35;;;;;;;7.33;5.03;;;6.80;99.90;;;;;;5020506;28;20212;-77
2022/10/19 01:28:30;;;;;;;10.43;5.20;;;6.80;99.90;;;;;;5010681;28;20203;-77
2022/10/19 01:30:57;;;;;;;11.33;4.83;;;6.70;99.90;;;;;;5001881;28;20214;-77
2022/10/19 01:33:30;;;;;;;9.53;5.00;;;6.70;99.90;;;;;;5017683;28;20211;-78
2022/10/19 01:36:01;;;;;;;8.80;5.10;;;6.80;99.90;;;;;;5018603;28;20249;-78
2022/10/19 01:38:53;;;;;;;12.97;4.60;;;6.70;99.90;;;;;;5024955;28;20194;-77
2022/10/19 01:41:44;;;;;;;10.93;5.37;;;6.70;99.90;;;;;;5003766;28;20289;-77
2022/10/19 01:44:21;;;;;;;12.00;5.90;;;6.60;99.90;;;;;;5021042;28;20201;-77
2022/10/19 01:46:57;;;;;;;10.40;5.63;;;6.60;99.90;;;;;;5024358;28;20700;-77
2022/10/19 01:50:00;;;;;;;9.20;5.67;;;6.60;99.90;;;;;;5021802;28;20260;-76
2022/10/19 01:52:28;;;;;;;9.17;5.47;;;6.50;99.90;;;;;;4984557;28;20286;-77
2022/10/19 01:54:59;;;;;;;14.73;7.00;;;6.50;99.90;;;;;;5020394;28;20226;-76
2022/10/19 01:57:32;;;;;;;11.87;5.80;;;6.50;99.90;;;;;;5015598;28;20237;-77
2022/10/19 02:00:06;;;;;;;15.13;6.27;;;6.60;99.90;;;;;;5017238;28;20301;-77
2022/10/19 02:02:35;;;;;;;10.33;5.73;;;6.50;99.90;;;;;;5008830;28;20611;-76
2022/10/19 02:05:04;;;;;;;12.80;5.77;;;6.50;99.90;;;;;;5021556;28;20218;-76
2022/10/19 02:07:32;;;;;;;12.77;6.20;;;6.50;99.90;;;;;;5022650;28;20642;-76
2022/10/19 02:09:59;;;;;;;10.37;5.37;;;6.40;99.90;;;;;;5021828;28;20293;-76
2022/10/19 02:12:30;;;;;;;11.37;5.63;;;6.40;99.90;;;;;;5004743;28;20222;-76
2022/10/19 02:15:01;;;;;;;10.57;4.93;;;6.40;99.90;;;;;;5001174;28;20223;-76
2022/10/19 02:17:33;;;;;;;11.90;5.73;;;6.40;99.90;;;;;;5022495;28;20217;-76
2022/10/19 02:20:00;;;;;;;8.47;5.00;;;6.40;99.90;;;;;;5003939;28;20235;-78
2022/10/19 02:22:27;;;;;;;9.77;5.53;;;6.40;99.90;;;;;;5023916;28;20234;-77
2022/10/19 02:24:58;;;;;;;11.67;5.00;;;6.40;99.90;;;;;;5020903;28;20678;-78
2022/10/19 02:27:25;;;;;;;8.23;5.63;;;6.30;99.90;;;;;;5022328;28;20337;-76
2022/10/19 02:29:53;;;;;;;8.80;5.23;;;6.30;99.90;;;;;;5001898;28;20224;-77
2022/10/19 02:32:20;;;;;;;9.70;5.17;;;6.30;99.90;;;;;;5022647;28;20273;-77
2022/10/19 02:34:47;;;;;;;10.60;5.17;;;6.30;99.90;;;;;;5021257;28;20621;-75
2022/10/19 02:37:13;;;;;;;7.83;4.60;;;6.20;99.90;;;;;;5016333;28;20206;-78
2022/10/19 02:39:40;;;;;;;11.63;5.70;;;6.20;99.90;;;;;;5023466;28;20297;-77
2022/10/19 02:42:14;;;;;;;10.70;6.23;;;6.20;99.90;;;;;;5023243;28;20507;-77
2022/10/19 02:44:57;;;;;;;15.60;6.70;;;6.20;99.90;;;;;;5005648;28;20397;-77
2022/10/19 02:47:35;;;;;;;11.87;6.40;;;6.20;99.90;;;;;;5000446;28;20231;-76
2022/10/19 02:50:10;;;;;;;10.63;5.57;;;6.10;99.90;;;;;;5023154;28;20256;-76
2022/10/19 02:52:38;;;;;;;9.07;6.00;;;6.10;99.90;;;;;;5024571;28;20284;-79
2022/10/19 02:55:06;;;;;;;13.30;6.50;;;6.20;99.90;;;;;;5000891;28;20226;-76
2022/10/19 02:57:33;;;;;;;10.80;6.77;;;6.10;99.90;;;;;;5018472;28;20289;-78
2022/10/19 03:00:04;;;;;;;10.30;5.90;;;6.10;99.90;;;;;;5020730;28;20229;-77
2022/10/19 03:02:31;;;;;;;9.23;5.53;;;6.10;99.90;;;;;;5023074;28;20266;-76
2022/10/19 03:04:58;;;;;;;9.63;5.53;;;6.10;99.90;;;;;;5021923;28;20258;-76
2022/10/19 03:07:26;;;;;;;8.60;4.87;;;6.00;99.90;;;;;;5017390;28;20284;-77
2022/10/19 03:09:53;;;;;;;10.37;4.77;;;6.00;99.90;;;;;;5022186;28;20349;-76
2022/10/19 03:12:21;;;;;;;8.43;4.87;;;6.00;99.90;;;;;;5017344;28;20211;-79
2022/10/19 03:14:47;;;;;;;11.77;4.70;;;6.00;99.90;;;;;;5020344;28;20248;-79
2022/10/19 03:17:15;;;;;;;10.73;6.47;;;6.00;99.90;;;;;;5024368;28;20201;-76
2022/10/19 03:19:42;;;;;;;8.40;5.23;;;6.00;99.90;;;;;;5019324;28;20225;-75
2022/10/19 03:22:08;;;;;;;8.60;5.37;;;5.90;99.90;;;;;;5020805;28;20297;-77
2022/10/19 03:24:36;;;;;;;8.03;5.00;;;5.90;99.90;;;;;;5019226;28;20209;-77
2022/10/19 03:27:03;;;;;;;10.43;5.10;;;5.90;99.90;;;;;;5026600;28;20229;-78
2022/10/19 03:29:29;;;;;;;14.37;6.20;;;5.90;99.90;;;;;;5023209;28;20294;-77
2022/10/19 03:31:56;;;;;;;12.63;6.30;;;5.80;99.90;;;;;;5021519;28;20901;-78
2022/10/19 03:34:23;;;;;;;12.47;6.13;;;5.80;99.90;;;;;;5021051;28;20230;-78
2022/10/19 03:36:50;;;;;;;11.20;6.10;;;5.80;99.90;;;;;;5021946;28;20205;-78
2022/10/19 03:39:17;;;;;;;15.17;5.50;;;5.80;99.90;;;;;;5035692;28;20332;-77
2022/10/19 03:41:49;;;;;;;10.20;5.27;;;5.80;99.90;;;;;;5002432;28;20238;-77
2022/10/19 03:44:15;;;;;;;9.60;5.17;;;5.80;99.90;;;;;;5023483;28;20257;-77
2022/10/19 03:46:42;;;;;;;8.60;4.07;;;5.90;99.90;;;;;;5019514;28;20655;-77
2022/10/19 03:49:10;;;;;;;5.70;3.70;;;5.80;99.90;;;;;;5017795;28;20257;-78
2022/10/19 03:51:37;;;;;;;8.13;3.53;;;5.70;99.90;;;;;;5025059;28;20247;-78
2022/10/19 03:54:06;;;;;;;9.80;4.13;;;5.70;99.90;;;;;;5018920;28;20712;-77
2022/10/19 03:56:34;;;;;;;7.00;3.80;;;5.70;99.90;;;;;;5018357;28;20212;-77
2022/10/19 03:59:03;;;;;;;5.23;3.53;;;5.70;99.90;;;;;;5016159;28;20202;-78
2022/10/19 04:01:35;;;;;;;10.53;4.03;;;6.10;99.90;;;;;;5023996;28;20205;-76
2022/10/19 04:04:05;;;;;;;10.00;4.27;;;5.90;99.90;;;;;;5020758;28;20681;-76
2022/10/19 04:06:38;;;;;;;9.33;3.70;;;6.00;99.90;;;;;;5023567;28;20288;-76
2022/10/19 04:09:06;;;;;;;7.03;3.47;;;5.70;99.90;;;;;;5021971;28;20249;-77
2022/10/19 04:11:34;;;;;;;7.43;3.23;;;5.90;99.90;;;;;;5023978;28;20289;-77
2022/10/19 04:14:02;;;;;;;5.60;3.70;;;5.80;99.90;;;;;;5018300;28;20293;-78
2022/10/19 04:16:33;;;;;;;7.37;3.77;;;5.50;99.90;;;;;;5005367;28;20238;-76
2022/10/19 04:19:00;;;;;;;3.67;3.23;;;5.70;99.90;;;;;;5020270;28;20225;-76
2022/10/19 04:21:31;;;;;;;5.60;3.23;;;6.10;99.90;;;;;;5018934;28;20214;-76
2022/10/19 04:24:06;;;;;;;5.07;3.60;;;5.80;99.90;;;;;;5014523;28;20222;-77
2022/10/19 04:26:33;;;;;;;8.63;3.70;;;5.80;99.90;;;;;;5020693;28;20235;-77
2022/10/19 04:29:02;;;;;;;8.43;3.27;;;7.10;99.90;;;;;;5021260;28;20239;-76
2022/10/19 04:31:29;;;;;;;8.83;3.77;;;5.70;99.90;;;;;;5020766;28;20360;-77
2022/10/19 04:33:56;;;;;;;6.87;3.90;;;5.70;99.90;;;;;;5020526;28;20322;-78
2022/10/19 04:36:23;;;;;;;9.47;3.67;;;5.50;99.90;;;;;;5018007;28;20232;-77
2022/10/19 04:38:50;;;;;;;9.90;3.60;;;5.70;99.90;;;;;;5017102;28;20202;-78
2022/10/19 04:41:19;;;;;;;4.77;3.53;;;5.60;99.90;;;;;;5024618;28;20201;-78
2022/10/19 04:43:47;;;;;;;7.20;3.80;;;5.60;99.90;;;;;;5017840;28;20206;-77
2022/10/19 04:46:18;;;;;;;7.53;3.80;;;5.60;99.90;;;;;;5022879;28;20639;-77
2022/10/19 04:48:46;;;;;;;6.73;3.73;;;5.60;99.90;;;;;;5007494;28;20205;-78
2022/10/19 04:51:14;;;;;;;6.37;4.70;;;5.50;99.90;;;;;;5001966;28;20621;-77
2022/10/19 04:53:42;;;;;;;11.37;4.60;;;5.50;99.90;;;;;;5025216;28;20205;-77
2022/10/19 04:56:21;;;;;;;6.00;3.77;;;5.50;99.90;;;;;;5010917;28;20269;-77
2022/10/19 04:58:48;;;;;;;4.27;3.30;;;5.50;99.90;;;;;;5008118;28;20218;-77
2022/10/19 05:01:20;;;;;;;7.30;3.07;;;5.50;99.90;;;;;;5018074;28;20946;-77
2022/10/19 05:03:48;;;;;;;7.60;3.70;;;;;;;;;;5023213;28;20219;-79
2022/10/19 05:06:15;;;;;;;13.03;4.07;;;5.40;99.90;;;;;;5022251;28;20205;-78
2022/10/19 05:08:41;;;;;;;6.30;4.07;;;5.40;99.90;;;;;;5018051;28;20209;-78
2022/10/19 05:11:11;;;;;;;5.87;3.77;;;5.40;99.90;;;;;;5023052;28;20201;-78
2022/10/19 05:13:39;;;;;;;6.37;3.23;;;5.40;99.90;;;;;;5015558;28;20206;-79
2022/10/19 05:16:09;;;;;;;7.30;3.70;;;5.40;99.90;;;;;;5017173;28;20308;-77
2022/10/19 05:18:36;;;;;;;9.90;3.80;;;5.40;99.90;;;;;;5014795;28;20211;-77
2022/10/19 05:21:13;;;;;;;9.60;3.50;;;5.40;99.90;;;;;;5020003;28;20285;-79
2022/10/19 05:23:41;;;;;;;11.60;3.80;;;5.40;99.90;;;;;;5019521;28;20254;-79
2022/10/19 05:26:12;;;;;;;6.37;3.80;;;5.40;99.90;;;;;;5021244;28;20205;-77
2022/10/19 05:28:39;;;;;;;7.40;3.97;;;5.40;99.90;;;;;;5021336;28;20313;-79
2022/10/19 05:31:13;;;;;;;5.73;3.87;;;5.40;99.90;;;;;;5005245;28;20205;-77
2022/10/19 05:33:40;;;;;;;8.20;3.83;;;5.40;99.90;;;;;;5025728;28;20264;-78
2022/10/19 05:36:19;;;;;;;7.63;4.27;;;5.40;99.90;;;;;;5018368;28;20312;-78
2022/10/19 05:38:48;;;;;;;5.63;4.00;;;5.40;99.90;;;;;;5017125;28;20706;-79
2022/10/19 05:41:16;;;;;;;7.57;4.30;;;5.40;99.90;;;;;;5021207;28;20573;-79
2022/10/19 05:43:43;;;;;;;10.37;4.67;;;5.40;99.90;;;;;;5019873;28;20220;-78
2022/10/19 05:46:13;;;;;;;6.77;4.03;;;5.40;99.90;;;;;;4999428;28;20210;-77
2022/10/19 05:48:40;;;;;;;6.67;4.50;;;5.50;99.90;;;;;;5000579;28;20653;-78
2022/10/19 05:51:09;;;;;;;8.30;4.37;;;5.40;99.90;;;;;;5020738;28;20309;-77
2022/10/19 05:53:40;;;;;;;12.57;4.63;;;5.50;99.90;;;;;;5014072;28;20285;-77
2022/10/19 05:56:11;;;;;;;6.77;4.40;;;5.50;99.90;;;;;;5018988;28;20743;-78
2022/10/19 05:58:38;;;;;;;10.50;4.40;;;5.50;99.90;;;;;;5022020;28;20284;-77
2022/10/19 06:01:05;;;;;;;8.60;5.20;;;5.50;99.90;;;;;;5020724;28;20304;-78
2022/10/19 06:03:32;;;;;;;9.10;5.27;;;5.50;99.90;;;;;;5014895;28;20607;-79
2022/10/19 06:06:02;;;;;;;7.77;4.80;;;5.60;99.90;;;;;;5016656;28;20650;-79
2022/10/19 06:08:29;;;;;;;9.30;4.67;;;5.70;99.90;;;;;;5017840;28;20285;-77
2022/10/19 06:11:14;;;;;;;13.87;5.03;;;5.80;99.90;;;;;;5020105;28;20205;-77
2022/10/19 06:13:43;;;;;;;9.17;5.20;;;5.80;99.90;;;;;;5003585;28;20213;-81
2022/10/19 06:16:11;;;;;;;8.30;4.90;;;5.80;99.90;;;;;;5022372;28;20222;-77
2022/10/19 06:18:41;;;;;;;10.53;4.77;;;5.80;99.90;;;;;;5016385;28;20610;-78
2022/10/19 06:21:14;;;;;;;10.40;4.87;;;5.80;99.90;;;;;;5019453;28;20217;-78
2022/10/19 06:23:41;;;;;;;11.97;5.33;;;5.80;99.90;;;;;;5021788;28;20195;-77
2022/10/19 06:26:14;;;;;;;6.73;4.80;;;6.00;99.90;;;;;;5024393;28;20209;-78
2022/10/19 06:28:42;;;;;;;12.20;4.53;;;5.90;99.90;;;;;;5025233;28;20565;-77
2022/10/19 06:31:09;;;;;;;12.17;4.50;;;5.90;99.90;;;;;;5019390;28;20215;-77
2022/10/19 06:33:39;;;;;;;13.43;5.27;;;5.90;99.90;;;;;;5029522;28;20243;-77
2022/10/19 06:36:16;;;;;;;13.53;4.27;;;5.90;99.90;;;;;;5026855;28;20627;-78
2022/10/19 06:38:46;;;;;;;12.60;4.67;;;5.90;99.90;;;;;;5044076;28;20204;-77
2022/10/19 06:41:13;;;;;;;11.40;4.70;;;5.90;99.90;;;;;;5039488;28;20198;-77
2022/10/19 06:43:42;;;;;;;12.17;4.70;;;5.90;99.90;;;;;;5022766;28;20300;-77
2022/10/19 06:46:16;;;;;;;9.50;4.43;;;5.90;99.90;;;;;;5044899;28;20727;-77
2022/10/19 06:48:43;;;;;;;10.63;5.00;;;5.90;99.90;;;;;;5026129;28;20663;-77
2022/10/19 06:51:12;;;;;;;12.93;4.67;;;6.00;99.90;;;;;;5043889;28;20198;-78
2022/10/19 06:53:39;;;;;;;13.77;4.97;;;6.00;99.90;;;;;;5044811;28;20213;-78
2022/10/19 06:56:06;;;;;;;12.43;5.37;;;5.90;99.90;;;;;;5028850;28;20260;-79
2022/10/19 06:58:37;;;;;;;7.30;5.00;;;6.00;99.90;;;;;;5042705;28;20204;-77
2022/10/19 07:01:06;;;;;;;8.90;5.07;;;6.00;99.90;;;;;;5043033;28;20289;-77
2022/10/19 07:03:34;;;;;;;11.33;5.40;;;6.10;99.90;;;;;;5040881;28;20197;-78
2022/10/19 07:06:04;;;;;;;10.77;5.33;;;6.20;99.90;;;;;;5043336;28;20576;-78
2022/10/19 07:08:31;;;;;;;8.57;5.27;;;6.20;99.90;;;;;;5037867;28;20264;-78
2022/10/19 07:11:01;;;;;;;9.83;5.30;;;6.20;99.90;;;;;;5049507;28;20209;-77
2022/10/19 07:13:29;;;;;;;15.37;5.87;;;6.30;99.90;;;;;;5040584;28;20314;-78
2022/10/19 07:16:04;;;;;;;13.93;5.27;;;6.40;99.90;;;;;;5040023;28;20320;-78
2022/10/19 07:18:32;;;;;;;7.80;5.17;;;6.40;99.90;;;;;;5049596;28;20202;-78
2022/10/19 07:21:03;;;;;;;9.70;5.07;;;6.30;99.90;;;;;;5037098;28;21042;-77
2022/10/19 07:23:33;;;;;;;11.97;6.20;;;6.50;99.90;;;;;;5026512;28;20286;-78
2022/10/19 07:26:11;;;;;;;11.17;5.87;;;6.60;99.90;;;;;;5045535;28;20234;-78
2022/10/19 07:28:42;;;;;;;8.13;5.03;;;6.50;99.90;;;;;;5044651;28;20188;-77
2022/10/19 07:31:12;;;;;;;14.70;6.23;;;6.60;99.90;;;;;;5041402;28;20238;-77
2022/10/19 07:33:40;;;;;;;13.37;6.80;;;6.60;99.90;;;;;;5038330;28;20231;-77
2022/10/19 07:36:08;;;;;;;16.17;5.80;;;6.60;99.90;;;;;;5020259;28;20312;-77
2022/10/19 07:38:36;;;;;;;16.07;7.30;;;6.70;99.90;;;;;;5021472;28;20694;-77
2022/10/19 07:41:11;;;;;;;16.43;6.93;;;6.80;99.90;;;;;;5023068;28;20208;-78
2022/10/19 07:43:42;;;;;;;13.87;7.03;;;6.90;99.90;;;;;;5020901;28;20298;-77
2022/10/19 07:46:21;;;;;;;16.13;7.80;;;7.00;99.90;;;;;;5005193;28;20249;-80
2022/10/19 07:48:48;;;;;;;13.97;7.63;;;7.10;99.90;;;;;;5009744;28;20282;-77
2022/10/19 07:51:17;;;;;;;15.73;7.90;;;7.20;99.90;;;;;;5024383;28;20744;-77
2022/10/19 07:53:44;;;;;;;19.27;8.17;;;7.30;99.90;;;;;;5027933;28;20579;-80
2022/10/19 07:56:14;;;;;;;12.63;7.57;;;7.50;99.90;;;;;;5028220;28;20561;-79
2022/10/19 07:58:41;;;;;;;10.50;6.87;;;7.60;99.90;;;;;;5027270;28;20236;-77
2022/10/19 08:01:14;;;;;;;18.27;7.57;;;7.60;99.90;;;;;;5028149;28;20310;-77
2022/10/19 08:03:41;;;;;;;13.17;7.70;;;7.80;99.90;;;;;;5029055;28;20206;-79
2022/10/19 08:06:28;;;;;;;9.60;7.43;;;7.90;99.90;;;;;;5022033;28;20206;-76
2022/10/19 08:08:55;;;;;;;14.63;9.60;;;8.10;99.90;;;;;;5028236;28;20236;-76
2022/10/19 08:11:25;;;;;;;14.23;7.93;;;8.20;99.90;;;;;;5020568;28;20312;-77
2022/10/19 08:13:52;;;;;;;11.20;7.70;;;8.40;99.90;;;;;;5022217;28;20199;-76
2022/10/19 08:16:33;;;;;;;14.97;8.03;;;8.60;99.90;;;;;;5022543;28;20682;-76
2022/10/19 08:19:02;;;;;;;14.97;9.47;;;8.60;99.90;;;;;;5021628;28;20308;-77
2022/10/19 08:21:30;;;;;;;14.73;8.80;;;8.70;99.90;;;;;;5019841;28;20258;-77
2022/10/19 08:23:56;;;;;;;12.53;8.97;;;8.80;99.90;;;;;;5001070;28;20261;-76
2022/10/19 08:26:24;;;;;;;13.67;8.07;;;8.90;99.90;;;;;;5020317;28;20640;-77
2022/10/19 08:28:51;;;;;;;10.97;7.47;;;9.10;99.90;;;;;;5018303;28;20302;-77
2022/10/19 08:31:20;;;;;;;15.07;7.60;;;9.20;99.90;;;;;;5023942;28;20651;-80
2022/10/19 08:33:49;;;;;;;16.90;8.10;;;9.30;99.90;;;;;;5021059;28;20226;-79
2022/10/19 08:36:18;;;;;;;11.30;7.50;;;9.50;99.90;;;;;;4997829;28;20693;-78
2022/10/19 08:38:47;;;;;;;11.67;8.00;;;9.50;99.90;;;;;;5020613;28;20206;-78
2022/10/19 08:41:32;;;;;;;11.83;8.47;;;9.60;99.90;;;;;;5000756;28;20789;-79
2022/10/19 08:44:38;;;;;;;12.63;8.23;;;9.80;99.90;;;;;;5018532;28;20210;-78
2022/10/19 08:47:40;;;;;;;12.00;8.00;;;9.90;99.90;;;;;;5018207;28;20297;-79
2022/10/19 08:50:18;;;;;;;13.37;8.70;;;10.00;99.90;;;;;;4980424;28;20240;-79
2022/10/19 08:53:13;;;;;;;11.67;7.97;;;10.20;99.90;;;;;;5013107;28;20629;-79
2022/10/19 08:55:44;;;;;;;14.00;8.20;;;;;;;;;;5008071;28;20241;-78
2022/10/19 08:58:34;;;;;;;13.17;8.40;;;10.50;99.90;;;;;;4999475;28;20214;-80
2022/10/19 09:01:33;;;;;;;14.17;8.57;;;10.70;99.90;;;;;;5021714;28;20297;-79
2022/10/19 09:04:13;;;;;;;15.00;7.80;;;10.90;99.90;;;;;;5018774;28;20622;-81
2022/10/19 09:06:43;;;;;;;11.67;7.67;;;11.00;99.90;;;;;;5004873;28;20267;-79
2022/10/19 09:09:13;;;;;;;16.67;7.80;;;11.20;99.90;;;;;;5024904;28;20206;-84
2022/10/19 09:14:21;;;;;;;13.40;6.73;;;11.40;99.90;;;;;;5023760;28;20221;-79
2022/10/19 09:16:48;;;;;;;12.10;6.30;;;11.60;99.90;;;;;;5027502;28;20269;-81
2022/10/19 09:19:24;;;;;;;12.37;6.07;;;11.70;99.90;;;;;;5006695;28;20252;-79
2022/10/19 09:22:11;;;;;;;12.37;5.47;;;11.70;99.90;;;;;;5031008;28;20231;-81
2022/10/19 09:25:02;;;;;;;9.47;5.13;;;11.80;99.90;;;;;;5030884;28;20205;-79
2022/10/19 09:27:37;;;;;;;8.43;4.63;;;11.90;99.90;;;;;;5025569;28;20241;-80
2022/10/19 09:30:26;;;;;;;5.70;4.00;;;12.00;99.90;;;;;;5007867;28;20194;-79
2022/10/19 09:33:00;;;;;;;7.07;3.87;;;11.80;99.90;;;;;;5008544;28;20206;-81
2022/10/19 09:35:41;;;;;;;6.50;3.60;;;11.90;99.90;;;;;;5025656;28;20575;-80
2022/10/19 09:38:11;;;;;;;8.80;3.50;;;11.90;99.90;;;;;;5031481;28;20577;-80
2022/10/19 09:40:37;;;;;;;8.23;4.03;;;12.00;99.90;;;;;;5003134;28;20316;-79
2022/10/19 09:43:18;;;;;;;5.20;2.87;;;12.00;99.90;;;;;;5026599;28;20229;-81
2022/10/19 09:45:57;;;;;;;8.70;3.63;;;12.00;99.90;;;;;;5023873;28;20263;-79
2022/10/19 09:48:47;;;;;;;8.13;2.90;;;12.00;99.90;;;;;;5023885;28;20221;-80
2022/10/19 09:51:16;;;;;;;9.07;3.57;;;12.10;99.90;;;;;;5025390;28;20198;-80
2022/10/19 09:53:50;;;;;;;12.30;3.27;;;12.10;99.90;;;;;;5010153;28;20209;-79
2022/10/19 09:56:26;;;;;;;8.10;3.10;;;12.10;99.90;;;;;;5027198;28;20706;-81
2022/10/19 09:58:57;;;;;;;7.47;3.73;;;12.20;99.90;;;;;;5028813;28;20588;-80
2022/10/19 10:01:34;;;;;;;7.53;2.70;;;12.20;99.90;;;;;;5035225;28;20271;-78
2022/10/19 10:04:14;;;;;;;7.23;3.00;;;12.30;99.90;;;;;;5014843;28;20214;-79
2022/10/19 10:06:43;;;;;;;6.67;2.83;;;12.40;99.90;;;;;;5030780;28;20305;-79
2022/10/19 10:09:18;;;;;;;9.97;3.07;;;12.40;99.90;;;;;;5009487;28;20222;-81
2022/10/19 10:11:48;;;;;;;5.30;2.60;;;12.30;99.90;;;;;;5014862;28;20193;-81
2022/10/19 10:14:20;;;;;;;4.60;2.20;;;12.50;99.90;;;;;;5030190;28;20205;-79
2022/10/19 10:16:47;;;;;;;5.30;2.53;;;12.50;99.90;;;;;;5012203;28;20612;-82
2022/10/19 10:19:15;;;;;;;6.23;2.20;;;13.40;99.90;;;;;;5023993;28;20256;-80
2022/10/19 10:21:49;;;;;;;6.90;2.40;;;13.80;99.90;;;;;;5014272;28;20300;-80
2022/10/19 10:24:18;;;;;;;6.80;2.53;;;12.60;99.90;;;;;;5028530;28;20196;-80
2022/10/19 10:26:51;;;;;;;4.60;1.70;;;12.70;99.90;;;;;;5015834;28;20229;-82
2022/10/19 10:29:19;;;;;;;6.70;1.93;;;12.70;99.90;;;;;;5027406;28;20244;-81
2022/10/19 10:31:54;;;;;;;7.87;1.80;;;12.80;99.90;;;;;;5028983;28;20325;-80
2022/10/19 10:34:34;;;;;;;4.30;1.60;;;12.90;99.90;;;;;;5006243;28;20221;-81
2022/10/19 10:37:21;;;;;;;5.90;1.23;;;12.80;99.90;;;;;;5025076;28;20226;-86
2022/10/19 10:39:53;;;;;;;4.23;1.67;;;12.90;99.90;;;;;;5026218;28;20309;-79
2022/10/19 10:42:33;;;;;;;8.63;1.47;;;13.00;99.90;;;;;;5022604;28;20321;-80
2022/10/19 10:45:01;;;;;;;7.30;1.60;;;13.00;99.90;;;;;;5031265;28;20206;-81
2022/10/19 10:47:29;;;;;;;8.07;1.60;;;13.10;99.90;;;;;;5028173;28;20291;-83
2022/10/19 10:50:04;;;;;;;6.20;1.90;;;13.10;99.90;;;;;;5023167;28;20260;-82
2022/10/19 10:52:35;;;;;;;7.20;1.77;;;13.20;99.90;;;;;;5005460;28;20220;-81
2022/10/19 10:55:09;;;;;;;5.10;1.63;;;13.20;99.90;;;;;;5030517;28;20288;-79
2022/10/19 10:57:50;;;;;;;3.03;1.67;;;13.30;99.90;;;;;;5030510;28;20231;-80
2022/10/19 11:00:23;;;;;;;11.63;3.33;;;13.50;99.90;;;;;;5027873;28;20198;-80
2022/10/19 11:03:15;;;;;;;7.97;2.23;;;13.50;99.90;;;;;;5010669;28;20217;-83
2022/10/19 11:05:47;;;;;;;6.63;2.20;;;13.50;99.90;;;;;;5029168;28;20216;-81
2022/10/19 11:08:23;;;;;;;7.27;2.17;;;13.60;99.90;;;;;;5027217;28;20246;-81
2022/10/19 11:11:05;;;;;;;6.73;2.20;;;13.60;99.90;;;;;;5030701;28;20666;-81
2022/10/19 11:13:41;;;;;;;5.47;2.20;;;13.60;99.90;;;;;;5030893;28;20242;-81
2022/10/19 11:16:22;;;;;;;5.93;2.20;;;13.60;99.90;;;;;;5031442;28;20291;-82
2022/10/19 11:19:00;;;;;;;10.23;3.13;;;13.50;99.90;;;;;;5012678;28;20209;-81
2022/10/19 11:21:50;;;;;;;9.43;2.70;;;13.50;99.90;;;;;;5026893;28;20248;-79
2022/10/19 11:24:32;;;;;;;7.07;2.73;;;13.60;99.90;;;;;;5028398;28;20194;-81
2022/10/19 11:27:17;;;;;;;9.33;2.83;;;13.60;99.90;;;;;;5029281;28;20236;-81
2022/10/19 11:29:57;;;;;;;7.60;2.60;;;13.70;99.90;;;;;;5024654;28;20213;-81
2022/10/19 11:32:56;;;;;;;7.70;2.63;;;13.80;99.90;;;;;;5027102;28;20308;-80
2022/10/19 11:35:41;;;;;;;7.83;2.60;;;13.80;99.90;;;;;;5029014;28;20226;-81
2022/10/19 11:38:13;;;;;;;8.83;2.50;;;13.80;99.90;;;;;;5029813;28;20288;-81
2022/10/19 11:40:46;;;;;;;6.80;2.50;;;13.80;99.90;;;;;;5011589;28;20284;-80
2022/10/19 11:43:57;;;;;;;9.27;3.10;;;13.80;99.90;;;;;;5030956;28;20205;-81
2022/10/19 11:46:28;;;;;;;9.10;2.60;;;13.80;99.90;;;;;;5002959;28;20212;-80
2022/10/19 11:49:24;;;;;;;10.90;2.70;;;13.90;99.90;;;;;;5031323;28;20632;-81
2022/10/19 11:52:17;;;;;;;6.83;2.70;;;14.00;99.90;;;;;;5010610;28;20813;-80
2022/10/19 11:55:03;;;;;;;6.70;2.97;;;14.00;99.90;;;;;;5020428;28;20272;-81
2022/10/19 11:57:52;;;;;;;8.40;2.60;;;14.20;99.90;;;;;;5012675;28;20468;-80
2022/10/19 12:00:20;;;;;;;10.00;2.80;;;14.20;99.90;;;;;;5011887;28;20241;-82
2022/10/19 12:03:23;;;;;;;5.10;2.50;;;14.30;99.90;;;;;;5030342;28;20214;-81
2022/10/19 12:06:02;;;;;;;7.10;2.43;;;14.30;99.90;;;;;;5029858;28;20228;-83
2022/10/19 12:09:05;;;;;;;8.60;3.00;;;14.40;99.90;;;;;;5012454;28;20206;-81
2022/10/19 12:11:53;;;;;;;11.30;3.37;;;14.50;99.90;;;;;;5028539;28;20201;-81
2022/10/19 12:14:27;;;;;;;6.43;2.97;;;14.50;99.90;;;;;;4989048;28;20219;-80
2022/10/19 12:16:59;;;;;;;17.90;3.43;;;14.60;99.90;;;;;;5009916;28;20668;-80
2022/10/19 12:19:31;;;;;;;10.70;3.10;;;14.60;99.90;;;;;;5009588;28;20226;-82
2022/10/19 12:22:01;;;;;;;12.00;3.60;;;14.70;99.90;;;;;;5010266;28;20285;-79
2022/10/19 12:24:31;;;;;;;6.83;3.10;;;14.70;99.90;;;;;;5006908;28;20202;-80
2022/10/19 12:27:00;;;;;;;8.20;3.07;;;14.80;99.90;;;;;;5010385;28;20207;-83
2022/10/19 12:29:31;;;;;;;12.67;3.17;;;14.70;99.90;;;;;;5006608;28;20314;-81
2022/10/19 12:31:59;;;;;;;8.73;3.57;;;14.90;99.90;;;;;;4992136;28;20634;-81
2022/10/19 12:34:32;;;;;;;8.33;3.80;;;15.00;99.90;;;;;;5009024;28;20309;-81
2022/10/19 12:37:11;;;;;;;13.00;4.17;;;15.00;99.90;;;;;;5008924;28;20266;-80
2022/10/19 12:39:54;;;;;;;9.50;3.77;;;15.00;99.90;;;;;;5008269;28;20202;-81
2022/10/19 12:43:00;;;;;;;7.23;3.20;;;15.10;99.90;;;;;;5009655;28;20265;-83
2022/10/19 12:45:34;;;;;;;5.73;3.40;;;15.10;99.90;;;;;;4996528;28;20297;-83
2022/10/19 12:48:07;;;;;;;6.97;3.73;;;15.00;99.90;;;;;;5010770;28;20212;-79
2022/10/19 12:50:52;;;;;;;8.30;3.97;;;15.10;99.90;;;;;;5010524;28;20444;-80
2022/10/19 12:53:25;;;;;;;8.80;3.33;;;15.20;99.90;;;;;;5012203;28;20589;-84
2022/10/19 12:56:21;;;;;;;8.63;3.30;;;15.20;99.90;;;;;;5011447;28;20208;-80
2022/10/19 12:58:54;;;;;;;8.80;3.00;;;15.20;99.90;;;;;;5010446;28;20210;-81
2022/10/19 13:01:28;;;;;;;12.93;3.40;;;15.20;99.90;;;;;;5016477;28;20355;-83
2022/10/19 13:04:26;;;;;;;6.97;3.20;;;15.30;99.90;;;;;;5004389;28;20269;-83
2022/10/19 13:06:55;;;;;;;8.93;3.33;;;15.50;99.90;;;;;;4975478;28;20214;-82
2022/10/19 13:09:41;;;;;;;8.23;3.23;;;15.30;99.90;;;;;;4992204;28;20261;-80
2022/10/19 13:12:17;;;;;;;8.17;3.20;;;15.40;99.90;;;;;;5011788;28;20267;-79
2022/10/19 13:14:59;;;;;;;6.00;3.17;;;15.40;99.90;;;;;;5027734;28;20208;-81
2022/10/19 13:17:33;;;;;;;7.07;3.17;;;15.40;99.90;;;;;;5011414;28;20237;-80
2022/10/19 13:20:12;;;;;;;9.90;3.70;;;15.40;99.90;;;;;;5028086;28;20245;-80
2022/10/19 13:22:48;;;;;;;10.67;3.70;;;15.40;99.90;;;;;;5024147;28;20241;-80
2022/10/19 13:25:15;;;;;;;5.65;3.55;;;15.40;99.90;;;;;;5029501;28;20301;-80